地図

経路データ

SID SEASON NUMBER BASIN SUBBASIN NAME ISO_TIME NATURE LAT LON WMO_WIND WMO_PRES WMO_AGENCY TRACK_TYPE DIST2LAND LANDFALL IFLAG USA_AGENCY USA_ATCF_ID USA_LAT USA_LON USA_RECORD USA_STATUS USA_WIND USA_PRES USA_SSHS USA_R34_NE USA_R34_SE USA_R34_SW USA_R34_NW USA_R50_NE USA_R50_SE USA_R50_SW USA_R50_NW USA_R64_NE USA_R64_SE USA_R64_SW USA_R64_NW USA_POCI USA_ROCI USA_RMW USA_EYE TOKYO_LAT TOKYO_LON TOKYO_GRADE TOKYO_WIND TOKYO_PRES TOKYO_R50_DIR TOKYO_R50_LONG TOKYO_R50_SHORT TOKYO_R30_DIR TOKYO_R30_LONG TOKYO_R30_SHORT TOKYO_LAND CMA_LAT CMA_LON CMA_CAT CMA_WIND CMA_PRES HKO_LAT HKO_LON HKO_CAT HKO_WIND HKO_PRES NEWDELHI_LAT NEWDELHI_LON NEWDELHI_GRADE NEWDELHI_WIND NEWDELHI_PRES NEWDELHI_CI NEWDELHI_DP NEWDELHI_POCI REUNION_LAT REUNION_LON REUNION_TYPE REUNION_WIND REUNION_PRES REUNION_TNUM REUNION_CI REUNION_RMW REUNION_R34_NE REUNION_R34_SE REUNION_R34_SW REUNION_R34_NW REUNION_R50_NE REUNION_R50_SE REUNION_R50_SW REUNION_R50_NW REUNION_R64_NE REUNION_R64_SE REUNION_R64_SW REUNION_R64_NW BOM_LAT BOM_LON BOM_TYPE BOM_WIND BOM_PRES BOM_TNUM BOM_CI BOM_RMW BOM_R34_NE BOM_R34_SE BOM_R34_SW BOM_R34_NW BOM_R50_NE BOM_R50_SE BOM_R50_SW BOM_R50_NW BOM_R64_NE BOM_R64_SE BOM_R64_SW BOM_R64_NW BOM_ROCI BOM_POCI BOM_EYE BOM_POS_METHOD BOM_PRES_METHOD NADI_LAT NADI_LON NADI_CAT NADI_WIND NADI_PRES WELLINGTON_LAT WELLINGTON_LON WELLINGTON_WIND WELLINGTON_PRES DS824_LAT DS824_LON DS824_STAGE DS824_WIND DS824_PRES TD9636_LAT TD9636_LON TD9636_STAGE TD9636_WIND TD9636_PRES TD9635_LAT TD9635_LON TD9635_WIND TD9635_PRES TD9635_ROCI NEUMANN_LAT NEUMANN_LON NEUMANN_CLASS NEUMANN_WIND NEUMANN_PRES MLC_LAT MLC_LON MLC_CLASS MLC_WIND MLC_PRES USA_GUST BOM_GUST BOM_GUST_PER REUNION_GUST REUNION_GUST_PER USA_SEAHGT USA_SEARAD_NE USA_SEARAD_SE USA_SEARAD_SW USA_SEARAD_NW STORM_SPEED STORM_DIR
1940217N29277 1940 43 NA GM NOT_NAMED 1940-08-03 12:00:00 TS 28.5000 -83.1000 25 hurdat_atl main 45 45 O_____________ hurdat_atl AL021940 28.5000 -83.1000 TD 25 -1 8 238
1940217N29277 1940 43 NA GM NOT_NAMED 1940-08-03 15:00:00 TS 28.2827 -83.4954 main 72 72 P_____________ AL021940 28.2827 -83.4954 TD 27 -1 8 240
1940217N29277 1940 43 NA GM NOT_NAMED 1940-08-03 18:00:00 TS 28.1000 -83.9000 30 hurdat_atl main 100 100 O_____________ hurdat_atl AL021940 28.1000 -83.9000 TD 30 -1 8 247
1940217N29277 1940 43 NA GM NOT_NAMED 1940-08-03 21:00:00 TS 27.9775 -84.3149 main 137 137 P_____________ AL021940 27.9775 -84.3149 TD 32 -1 7 254
1940217N29277 1940 43 NA GM NOT_NAMED 1940-08-04 00:00:00 TS 27.9000 -84.7000 35 hurdat_atl main 176 176 O_____________ hurdat_atl AL021940 27.9000 -84.7000 TS 35 0 6 257
1940217N29277 1940 43 NA GM NOT_NAMED 1940-08-04 03:00:00 TS 27.8348 -85.0149 main 206 206 P_____________ AL021940 27.8348 -85.0149 TS 37 0 5 259
1940217N29277 1940 43 NA GM NOT_NAMED 1940-08-04 06:00:00 TS 27.8000 -85.3000 40 hurdat_atl main 212 212 O_____________ hurdat_atl AL021940 27.8000 -85.3000 TS 40 0 5 265
1940217N29277 1940 43 NA GM NOT_NAMED 1940-08-04 09:00:00 TS 27.7924 -85.5999 main 212 212 P_____________ AL021940 27.7924 -85.5999 TS 40 0 5 270
1940217N29277 1940 43 NA GM NOT_NAMED 1940-08-04 12:00:00 TS 27.8000 -85.9000 40 hurdat_atl main 217 217 O_____________ hurdat_atl AL021940 27.8000 -85.9000 TS 40 0 5 270
1940217N29277 1940 43 NA GM NOT_NAMED 1940-08-04 15:00:00 TS 27.7924 -86.1926 main 225 225 P_____________ AL021940 27.7924 -86.1926 TS 42 0 5 270
1940217N29277 1940 43 NA GM NOT_NAMED 1940-08-04 18:00:00 TS 27.8000 -86.5000 45 hurdat_atl main 237 237 O_____________ hurdat_atl AL021940 27.8000 -86.5000 TS 45 0 6 275
1940217N29277 1940 43 NA GM NOT_NAMED 1940-08-04 21:00:00 TS 27.8426 -86.8574 main 251 220 P_____________ AL021940 27.8426 -86.8574 TS 47 0 6 279
1940217N29277 1940 43 NA GM NOT_NAMED 1940-08-05 00:00:00 TS 27.9000 -87.2000 50 hurdat_atl main 220 198 O_____________ hurdat_atl AL021940 27.9000 -87.2000 TS 50 0 5 281
1940217N29277 1940 43 NA GM NOT_NAMED 1940-08-05 03:00:00 TS 27.9499 -87.4650 main 198 176 P_____________ AL021940 27.9499 -87.4650 TS 52 0 5 283
1940217N29277 1940 43 NA GM NOT_NAMED 1940-08-05 06:00:00 TS 28.0000 -87.7000 55 995 hurdat_atl main 176 161 O_____________ hurdat_atl AL021940 28.0000 -87.7000 TS 55 995 0 4 283
1940217N29277 1940 43 NA GM NOT_NAMED 1940-08-05 09:00:00 TS 28.0500 -87.9500 main 154 133 P_____________ AL021940 28.0500 -87.9500 TS 57 0 5 283
1940217N29277 1940 43 NA GM NOT_NAMED 1940-08-05 12:00:00 TS 28.1000 -88.2000 60 hurdat_atl main 133 121 O_____________ hurdat_atl AL021940 28.1000 -88.2000 TS 60 0 5 283
1940217N29277 1940 43 NA GM NOT_NAMED 1940-08-05 15:00:00 TS 28.1500 -88.4500 main 116 97 P_____________ AL021940 28.1500 -88.4500 TS 62 0 5 283
1940217N29277 1940 43 NA GM NOT_NAMED 1940-08-05 18:00:00 TS 28.2000 -88.7000 65 hurdat_atl main 97 91 O_____________ hurdat_atl AL021940 28.2000 -88.7000 HU 65 1 5 283
1940217N29277 1940 43 NA GM NOT_NAMED 1940-08-05 21:00:00 TS 28.2500 -88.9500 main 89 78 P_____________ AL021940 28.2500 -88.9500 HU 67 1 5 283
1940217N29277 1940 43 NA GM NOT_NAMED 1940-08-06 00:00:00 TS 28.3000 -89.2000 70 hurdat_atl main 78 78 O_____________ hurdat_atl AL021940 28.3000 -89.2000 HU 70 1 4 282
1940217N29277 1940 43 NA GM NOT_NAMED 1940-08-06 03:00:00 TS 28.3424 -89.4351 main 83 77 P_____________ AL021940 28.3424 -89.4351 HU 70 1 5 283
1940217N29277 1940 43 NA GM NOT_NAMED 1940-08-06 06:00:00 TS 28.4000 -89.7000 70 hurdat_atl main 83 67 O_____________ hurdat_atl AL021940 28.4000 -89.7000 HU 70 1 5 286
1940217N29277 1940 43 NA GM NOT_NAMED 1940-08-06 09:00:00 TS 28.4925 -90.0350 main 67 55 P_____________ AL021940 28.4925 -90.0350 HU 72 1 6 288
1940217N29277 1940 43 NA GM NOT_NAMED 1940-08-06 12:00:00 TS 28.6000 -90.4000 75 hurdat_atl main 59 44 O_____________ hurdat_atl AL021940 28.6000 -90.4000 HU 75 1 7 288
1940217N29277 1940 43 NA GM NOT_NAMED 1940-08-06 15:00:00 TS 28.6999 -90.7426 main 45 33 P_____________ AL021940 28.6999 -90.7426 HU 77 1 6 288
1940217N29277 1940 43 NA GM NOT_NAMED 1940-08-06 18:00:00 TS 28.8000 -91.1000 80 hurdat_atl main 38 38 O_____________ hurdat_atl AL021940 28.8000 -91.1000 HU 80 1 7 287
1940217N29277 1940 43 NA GM NOT_NAMED 1940-08-06 21:00:00 TS 28.9000 -91.5000 main 51 51 P_____________ AL021940 28.9000 -91.5000 HU 80 1 7 286
1940217N29277 1940 43 NA GM NOT_NAMED 1940-08-07 00:00:00 TS 29.0000 -91.9000 80 hurdat_atl main 62 45 O_____________ hurdat_atl AL021940 29.0000 -91.9000 HU 80 1 7 287
1940217N29277 1940 43 NA GM NOT_NAMED 1940-08-07 03:00:00 TS 29.0999 -92.2651 main 44 38 P_____________ AL021940 29.0999 -92.2651 HU 82 1 6 288
1940217N29277 1940 43 NA GM NOT_NAMED 1940-08-07 06:00:00 TS 29.2000 -92.6000 85 hurdat_atl main 44 38 O_____________ hurdat_atl AL021940 29.2000 -92.6000 HU 85 2 6 290
1940217N29277 1940 43 NA GM NOT_NAMED 1940-08-07 09:00:00 TS 29.2999 -92.9076 main 44 38 P_____________ AL021940 29.2999 -92.9076 HU 85 2 6 291
1940217N29277 1940 43 NA GM NOT_NAMED 1940-08-07 12:00:00 TS 29.4000 -93.2000 85 hurdat_atl main 44 33 O_____________ hurdat_atl AL021940 29.4000 -93.2000 HU 85 2 6 291
1940217N29277 1940 43 NA GM NOT_NAMED 1940-08-07 15:00:00 TS 29.4999 -93.5001 main 33 11 P_____________ AL021940 29.4999 -93.5001 HU 85 2 6 291
1940217N29277 1940 43 NA GM NOT_NAMED 1940-08-07 18:00:00 TS 29.6000 -93.8000 85 972 hurdat_atl main 11 0 O_____________ hurdat_atl AL021940 29.6000 -93.8000 HU 85 972 2 6 291
1940217N29277 1940 43 NA GM NOT_NAMED 1940-08-07 21:00:00 TS 29.7000 -94.1000 85 972 hurdat_atl main 0 0 O_____________ hurdat_atl AL021940 29.7000 -94.1000 L HU 85 972 2 5 295
1940217N29277 1940 43 NA NA NOT_NAMED 1940-08-08 00:00:00 TS 29.8000 -94.3000 65 hurdat_atl main 0 0 O_____________ hurdat_atl AL021940 29.8000 -94.3000 HU 65 1 4 309
1940217N29277 1940 43 NA NA NOT_NAMED 1940-08-08 03:00:00 TS 29.9329 -94.4341 main 0 0 P_____________ AL021940 29.9329 -94.4341 HU 57 0 3 330
1940217N29277 1940 43 NA NA NOT_NAMED 1940-08-08 06:00:00 TS 30.1000 -94.5000 50 hurdat_atl main 0 0 O_____________ hurdat_atl AL021940 30.1000 -94.5000 TS 50 0 4 349
1940217N29277 1940 43 NA NA NOT_NAMED 1940-08-08 09:00:00 TS 30.2925 -94.5151 main 0 0 P_____________ AL021940 30.2925 -94.5151 TS 47 0 4 0
1940217N29277 1940 43 NA NA NOT_NAMED 1940-08-08 12:00:00 TS 30.5000 -94.5000 45 hurdat_atl main 0 0 O_____________ hurdat_atl AL021940 30.5000 -94.5000 TS 45 0 4 0
1940217N29277 1940 43 NA NA NOT_NAMED 1940-08-08 15:00:00 TS 30.7000 -94.5000 main 0 0 P_____________ AL021940 30.7000 -94.5000 TS 45 0 4 0
1940217N29277 1940 43 NA NA NOT_NAMED 1940-08-08 18:00:00 TS 30.9000 -94.5000 45 hurdat_atl main 0 0 O_____________ hurdat_atl AL021940 30.9000 -94.5000 TS 45 0 4 0
1940217N29277 1940 43 NA NA NOT_NAMED 1940-08-08 21:00:00 TS 31.0925 -94.5000 main 0 0 P_____________ AL021940 31.0925 -94.5000 TS 42 0 4 0
1940217N29277 1940 43 NA NA NOT_NAMED 1940-08-09 00:00:00 TS 31.3000 -94.5000 40 hurdat_atl main 0 0 O_____________ hurdat_atl AL021940 31.3000 -94.5000 TS 40 0 4 0
1940217N29277 1940 43 NA NA NOT_NAMED 1940-08-09 03:00:00 TS 31.5350 -94.5000 main 0 0 P_____________ AL021940 31.5350 -94.5000 TS 37 0 5 2
1940217N29277 1940 43 NA NA NOT_NAMED 1940-08-09 06:00:00 TS 31.8000 -94.5000 35 hurdat_atl main 0 0 O_____________ hurdat_atl AL021940 31.8000 -94.5000 TS 35 0 6 1
1940217N29277 1940 43 NA NA NOT_NAMED 1940-08-09 09:00:00 TS 32.1000 -94.5000 main 0 0 P_____________ AL021940 32.1000 -94.5000 TS 32 -1 6 1
1940217N29277 1940 43 NA NA NOT_NAMED 1940-08-09 12:00:00 TS 32.4000 -94.5000 30 hurdat_atl main 0 0 O_____________ hurdat_atl AL021940 32.4000 -94.5000 TD 30 -1 6 357
1940217N29277 1940 43 NA NA NOT_NAMED 1940-08-09 15:00:00 TS 32.6575 -94.5149 main 0 0 P_____________ AL021940 32.6575 -94.5149 TD 27 -1 5 2
1940217N29277 1940 43 NA NA NOT_NAMED 1940-08-09 18:00:00 TS 32.9000 -94.5000 25 hurdat_atl main 0 0 O_____________ hurdat_atl AL021940 32.9000 -94.5000 TD 25 -1 5 9
1940217N29277 1940 43 NA NA NOT_NAMED 1940-08-09 21:00:00 TS 33.1425 -94.4225 main 0 0 P_____________ AL021940 33.1425 -94.4225 TD 25 -1 5 19
1940217N29277 1940 43 NA NA NOT_NAMED 1940-08-10 00:00:00 TS 33.4000 -94.3000 25 hurdat_atl main 0 0 O_____________ hurdat_atl AL021940 33.4000 -94.3000 TD 25 -1 6 22
1940217N29277 1940 43 NA NA NOT_NAMED 1940-08-10 03:00:00 TS 33.6775 -94.1574 main 0 0 P_____________ AL021940 33.6775 -94.1574 TD 22 -1 7 23
1940217N29277 1940 43 NA NA NOT_NAMED 1940-08-10 06:00:00 TS 34.0000 -94.0000 20 hurdat_atl main 0 0 O_____________ hurdat_atl AL021940 34.0000 -94.0000 TD 20 -1 7 20
1940217N29277 1940 43 NA NA NOT_NAMED 1940-08-10 09:00:00 TS 34.3775 -93.8573 main 0 0 P_____________ AL021940 34.3775 -93.8573 TD 20 -1 8 17
1940217N29277 1940 43 NA NA NOT_NAMED 1940-08-10 12:00:00 TS 34.8000 -93.7000 20 hurdat_atl main 0 0 O_____________ hurdat_atl AL021940 34.8000 -93.7000 TD 20 -1 9 18
1940217N29277 1940 43 NA NA NOT_NAMED 1940-08-10 15:00:00 TS 35.2451 -93.5106 main 0 0 P_____________ AL021940 35.2451 -93.5106 TD 20 -1 10 20
1940217N29277 1940 43 NA NA NOT_NAMED 1940-08-10 18:00:00 TS 35.7000 -93.3000 20 hurdat_atl main 0 O_____________ hurdat_atl AL021940 35.7000 -93.3000 TD 20 -1 10 21

IBTrACS Databaseについて

本データベースは、米国NOAAが公開する1842年以降の世界の熱帯低気圧のベストトラックデータアーカイブInternational Best Track Archive for Climate Stewardship (IBTrACS)を、ウェブで閲覧しやすい形式に変換したものです。

最終更新日:2021-12-08